Cary Plt, Maine
Current Conditions -  °F | °C
As of 4:53 AM on Saturday 25 Oct 2014 (Local Time) from KHUL Reporting Station
Overcast Overcast  
Wind Chill: 41°   Ceiling: 3000
Heat Index: 41°   Visibility: 10mi
Dew Point: 38°   Wind: 3mph
Humidity: 89%   Direction: 10°N
Pressure: 29.61"   Gusts: NA
Location:  45.8952°N, 67.8479°W
Report Text: KHUL 250853Z AUTO 01003KT 10SM OVC030 05/03 A2961 RMK AO2 SLP030 T00500033 56004
Loading
Personal Weather Stations






























Interactive Weather Map
Tropical Storm Tracking
New forecast layout! Learn more

10-Day Weather Forecast

Advertisements
Track Severe Weather on mobile